Time;durP1;ratioP1;P1;durP2;ratioP2;P2;SDS_P1;SDS_P2;PMS_P1;PMS_P2;Temp;Humidity;BMP_temperature;BMP_pressure;BME280_temperature;BME280_humidity;BME280_pressure;Samples;Min_cycle;Max_cycle;Signal;HPM_P1;HPM_P2
2023/01/20 00:00:02;;;;;;;0.10;0.10;;;;;;;2.19;66.95;101074.22;7354510;19;20007;-55
2023/01/20 00:02:28;;;;;;;0.08;0.08;;;;;;;2.12;66.90;101069.78;7353344;19;20026;-58
2023/01/20 00:04:53;;;;;;;0.00;0.00;;;;;;;2.20;66.88;101081.13;7354667;19;20014;-58
2023/01/20 00:07:19;;;;;;;0.00;0.00;;;;;;;2.21;66.66;101077.69;7352032;19;20015;-57
2023/01/20 00:09:44;;;;;;;0.03;0.03;;;;;;;2.21;67.05;101077.69;7353555;19;20574;-58
2023/01/20 00:12:09;;;;;;;0.10;0.10;;;;;;;2.23;66.92;101086.34;7353076;19;20027;-57
2023/01/20 00:14:35;;;;;;;0.10;0.10;;;;;;;2.23;67.04;101080.28;7352579;19;20006;-57
2023/01/20 00:17:00;;;;;;;0.10;0.10;;;;;;;2.24;67.37;101076.88;7354351;19;20845;-58
2023/01/20 00:19:26;;;;;;;0.00;0.00;;;;;;;2.24;67.19;101088.06;7355077;19;20887;-58
2023/01/20 00:21:53;;;;;;;0.05;0.05;;;;;;;2.24;67.30;101077.75;7352813;19;20019;-57
2023/01/20 00:24:18;;;;;;;0.00;0.00;;;;;;;2.22;67.42;101079.41;7351688;19;20466;-57
2023/01/20 00:26:43;;;;;;;0.05;0.05;;;;;;;2.25;67.29;101082.06;7353053;19;20097;-57
2023/01/20 00:29:09;;;;;;;0.08;0.08;;;;;;;2.25;67.27;101087.22;7353474;19;20020;-58
2023/01/20 00:31:35;;;;;;;0.00;0.00;;;;;;;2.26;67.19;101088.94;7351492;19;20129;-57
2023/01/20 00:34:01;;;;;;;0.00;0.00;;;;;;;2.27;67.40;101093.25;7346204;19;20904;-57
2023/01/20 00:36:28;;;;;;;0.00;0.00;;;;;;;2.27;67.73;101098.41;7354196;19;20805;-58
2023/01/20 00:38:54;;;;;;;0.10;0.10;;;;;;;2.27;67.14;101093.25;7351073;19;20006;-58
2023/01/20 00:41:19;;;;;;;0.00;0.00;;;;;;;2.27;67.12;101088.09;7352040;19;20017;-58
2023/01/20 00:43:45;;;;;;;0.10;0.10;;;;;;;2.12;67.09;101056.91;7351063;19;20010;-58
2023/01/20 00:46:11;;;;;;;0.00;0.00;;;;;;;2.28;66.98;101083.81;7351338;19;20014;-58
2023/01/20 00:48:37;;;;;;;0.10;0.10;;;;;;;2.25;67.30;101089.78;7352808;19;20034;-58
2023/01/20 00:51:04;;;;;;;0.00;0.00;;;;;;;2.26;67.48;101090.66;7351255;19;20949;-57
2023/01/20 00:53:30;;;;;;;0.03;0.03;;;;;;;2.24;67.74;101088.06;7353982;19;20803;-58
2023/01/20 00:55:55;;;;;;;0.00;0.00;;;;;;;2.23;67.38;101085.44;7348301;19;20010;-58
2023/01/20 00:58:21;;;;;;;0.00;0.00;;;;;;;2.23;67.42;101081.19;7352162;19;20127;-58
2023/01/20 01:00:47;;;;;;;0.00;0.00;;;;;;;2.22;67.58;101094.88;7351232;19;20028;-58
2023/01/20 01:03:14;;;;;;;0.00;0.00;;;;;;;2.22;67.50;101084.56;7352722;19;20125;-58
2023/01/20 01:05:39;;;;;;;0.00;0.00;;;;;;;2.21;67.48;101088.00;7350491;19;20023;-55
2023/01/20 01:08:05;;;;;;;0.00;0.00;;;;;;;2.20;67.71;101080.25;7354035;19;20054;-58
2023/01/20 01:10:31;;;;;;;0.00;0.00;;;;;;;2.19;67.53;101075.94;7351678;19;20014;-57
2023/01/20 01:12:59;;;;;;;0.00;0.00;;;;;;;2.19;67.33;101087.13;7352431;19;20746;-57
2023/01/20 01:15:24;;;;;;;0.10;0.10;;;;;;;2.17;67.40;101086.19;7349641;19;20010;-57
2023/01/20 01:17:51;;;;;;;0.10;0.10;;;;;;;2.07;67.60;101079.16;7352139;19;20014;-58
2023/01/20 01:20:17;;;;;;;0.00;0.00;;;;;;;2.15;67.75;101092.19;7348285;19;20029;-57
2023/01/20 01:22:42;;;;;;;0.08;0.08;;;;;;;2.15;67.57;101098.19;7352255;19;20653;-58
2023/01/20 01:25:08;;;;;;;0.00;0.00;;;;;;;2.11;67.61;101086.09;7347687;19;20015;-57
2023/01/20 01:27:34;;;;;;;0.10;0.10;;;;;;;2.14;67.50;101090.44;7352603;19;20006;-58
2023/01/20 01:29:59;;;;;;;0.08;0.08;;;;;;;2.03;68.19;101077.38;7349296;19;20082;-57
2023/01/20 01:32:25;;;;;;;0.05;0.05;;;;;;;2.12;68.15;101097.25;7351324;19;20006;-57
2023/01/20 01:34:50;;;;;;;0.08;0.08;;;;;;;2.11;67.88;101104.13;7351048;19;20050;-57
2023/01/20 01:37:16;;;;;;;0.03;0.03;;;;;;;2.10;68.25;101104.97;7351112;19;20069;-57
2023/01/20 01:39:41;;;;;;;0.00;0.00;;;;;;;2.11;68.23;101106.69;7350243;19;20003;-57
2023/01/20 01:42:15;;;;;;;0.00;0.00;;;;;;;2.11;68.33;101105.84;7352411;19;20031;-58
2023/01/20 01:45:11;;;;;;;0.00;0.00;;;;;;;2.11;68.24;101109.28;7349949;19;20089;-58
2023/01/20 01:48:01;;;;;;;0.10;0.10;;;;;;;2.10;68.06;101098.97;7246742;19;2004457;-57
2023/01/20 01:51:06;;;;;;;0.10;0.10;;;;;;;2.13;68.09;101104.16;7248246;19;2004574;-57
2023/01/20 01:53:37;;;;;;;0.10;0.10;;;;;;;2.11;68.58;101100.69;7239524;19;2004532;-57
2023/01/20 01:56:03;;;;;;;0.10;0.10;;;;;;;1.98;68.30;101084.16;7349323;19;20010;-58
2023/01/20 01:58:33;;;;;;;0.10;0.10;;;;;;;2.12;68.52;101108.44;7352788;19;20880;-58
2023/01/20 02:00:59;;;;;;;0.10;0.10;;;;;;;2.08;68.33;101104.97;7351032;19;20011;-58
2023/01/20 02:03:30;;;;;;;0.08;0.08;;;;;;;2.12;68.45;101107.56;7352201;19;20022;-58
2023/01/20 02:05:56;;;;;;;0.03;0.03;;;;;;;2.12;69.08;101107.56;7349416;19;20034;-58
2023/01/20 02:08:23;;;;;;;0.00;0.00;;;;;;;2.12;68.98;101107.56;7349646;19;20029;-58
2023/01/20 02:10:49;;;;;;;0.00;0.00;;;;;;;2.04;68.74;101094.56;7351255;19;20023;-58
2023/01/20 02:13:14;;;;;;;0.00;0.00;;;;;;;2.08;68.67;101102.38;7349166;19;20022;-57
2023/01/20 02:15:58;;;;;;;0.00;0.00;;;;;;;2.02;69.16;101091.94;7347745;19;20035;-57
2023/01/20 02:19:00;;;;;;;0.00;0.00;;;;;;;2.18;68.81;101116.31;7350124;19;20012;-58
2023/01/20 02:21:53;;;;;;;0.05;0.05;;;;;;;2.19;68.69;101119.75;7249047;19;2004447;-57
2023/01/20 02:24:43;;;;;;;0.00;0.00;;;;;;;2.18;69.04;101129.19;7342793;19;20134;-57
2023/01/20 02:27:32;;;;;;;0.00;0.00;;;;;;;2.20;69.17;101132.66;7348175;19;20027;-57
2023/01/20 02:30:25;;;;;;;0.00;0.00;;;;;;;2.23;68.71;101136.97;7350535;19;20462;-58
2023/01/20 02:33:11;;;;;;;0.03;0.03;;;;;;;2.24;68.80;101134.44;7246288;19;2004325;-58
2023/01/20 02:35:48;;;;;;;0.10;0.10;;;;;;;2.25;69.00;101135.31;7348499;19;20010;-58
2023/01/20 02:38:22;;;;;;;0.00;0.00;;;;;;;2.25;69.34;101135.31;7352032;19;20623;-57
2023/01/20 02:41:19;;;;;;;0.10;0.10;;;;;;;2.27;68.59;101138.75;7349067;19;20015;-58
2023/01/20 02:44:16;;;;;;;0.10;0.10;;;;;;;2.25;68.44;101143.91;7244609;19;2004598;-58
2023/01/20 02:46:58;;;;;;;0.00;0.00;;;;;;;2.17;68.64;101127.41;7248329;19;2004324;-58
2023/01/20 02:49:33;;;;;;;0.10;0.10;;;;;;;2.26;68.97;101147.34;7346188;19;20019;-57
2023/01/20 02:52:30;;;;;;;0.00;0.00;;;;;;;2.26;68.77;101147.34;7349815;19;20844;-57
2023/01/20 02:54:57;;;;;;;;;;;;;;;2.25;67.84;101145.63;7245188;19;2004410;-58
2023/01/20 02:57:30;;;;;;;0.10;0.10;;;;;;;2.23;68.45;101152.44;7350612;19;19911;-58
2023/01/20 03:00:00;;;;;;;0.10;0.10;;;;;;;2.21;69.03;101152.41;7352700;19;20931;-58
2023/01/20 03:02:29;;;;;;;0.00;0.00;;;;;;;2.20;69.39;101155.84;7360166;19;20530;-58
2023/01/20 03:05:18;;;;;;;0.05;0.05;;;;;;;2.20;68.58;101158.41;7355135;19;20026;-57
2023/01/20 03:07:44;;;;;;;0.00;0.00;;;;;;;2.18;69.20;101157.53;7361109;19;20011;-58
2023/01/20 03:10:14;;;;;;;0.00;0.00;;;;;;;2.19;69.00;101166.97;7361446;19;20027;-56
2023/01/20 03:12:54;;;;;;;0.10;0.10;;;;;;;2.07;69.05;101135.81;7356976;19;20006;-58
2023/01/20 03:15:26;;;;;;;0.10;0.10;;;;;;;2.11;69.18;101147.91;7360478;19;20022;-58
2023/01/20 03:17:51;;;;;;;0.00;0.00;;;;;;;2.19;69.13;101155.81;7361696;19;20549;-56
2023/01/20 03:20:17;;;;;;;0.00;0.00;;;;;;;2.19;69.20;101161.84;7357791;19;21921;-58
2023/01/20 03:22:42;;;;;;;0.00;0.00;;;;;;;2.18;69.01;101166.94;7362556;19;20841;-57
2023/01/20 03:25:10;;;;;;;0.00;0.00;;;;;;;2.16;69.42;101160.91;7355050;19;20022;-58
2023/01/20 03:27:35;;;;;;;0.03;0.03;;;;;;;2.17;69.67;101168.66;7361496;19;20770;-57
2023/01/20 03:30:01;;;;;;;0.10;0.10;;;;;;;2.17;70.09;101172.94;7358804;19;22122;-58
2023/01/20 03:32:27;;;;;;;0.00;0.00;;;;;;;2.17;69.75;101178.09;7360768;19;20007;-57
2023/01/20 03:34:54;;;;;;;0.00;0.00;;;;;;;2.18;70.10;101177.22;7358220;19;20043;-55
2023/01/20 03:37:20;;;;;;;0.10;0.10;;;;;;;2.17;70.21;101184.09;7353627;19;20014;-57
2023/01/20 03:39:46;;;;;;;0.00;0.00;;;;;;;2.18;70.13;101182.38;7360431;19;20734;-57
2023/01/20 03:42:18;;;;;;;0.10;0.10;;;;;;;2.19;70.45;101187.59;7362640;19;20038;-57
2023/01/20 03:45:08;;;;;;;0.00;0.00;;;;;;;2.19;70.00;101179.88;7356376;19;20015;-58
2023/01/20 03:47:36;;;;;;;0.03;0.03;;;;;;;2.18;70.12;101177.22;7360871;19;20725;-57
2023/01/20 03:50:08;;;;;;;0.10;0.10;;;;;;;2.17;70.55;101175.50;7358867;19;20375;-58
2023/01/20 03:52:58;;;;;;;0.00;0.00;;;;;;;2.15;70.10;101175.47;7361096;19;20109;-58
2023/01/20 03:55:45;;;;;;;0.10;0.10;;;;;;;2.14;70.43;101183.19;7354355;19;20668;-57
2023/01/20 03:58:15;;;;;;;0.05;0.05;;;;;;;2.13;70.71;101182.34;7361245;19;20006;-57
2023/01/20 04:00:47;;;;;;;0.00;0.00;;;;;;;2.13;70.93;101182.34;7357193;19;20022;-56
2023/01/20 04:03:17;;;;;;;0.10;0.10;;;;;;;2.02;70.80;101173.50;7360390;19;20014;-57
2023/01/20 04:05:45;;;;;;;0.10;0.10;;;;;;;2.01;70.85;101169.19;7337838;19;20018;-58
2023/01/20 04:08:13;;;;;;;0.00;0.00;;;;;;;2.08;70.89;101186.53;7357211;19;20033;-58
2023/01/20 04:10:42;;;;;;;0.00;0.00;;;;;;;2.08;70.63;101184.81;7356517;19;20594;-58
2023/01/20 04:13:08;;;;;;;0.05;0.05;;;;;;;2.07;70.81;101174.47;7355719;19;20042;-57
2023/01/20 04:15:37;;;;;;;0.00;0.00;;;;;;;2.06;70.59;101180.47;7357744;19;21457;-58
2023/01/20 04:18:14;;;;;;;0.05;0.05;;;;;;;2.06;70.62;101185.59;7356678;19;20030;-57
2023/01/20 04:20:42;;;;;;;0.10;0.10;;;;;;;1.99;70.73;101184.63;7343105;19;20029;-57
2023/01/20 04:23:16;;;;;;;0.10;0.10;;;;;;;2.03;70.52;101185.56;7358609;19;20014;-57
2023/01/20 04:25:42;;;;;;;0.08;0.08;;;;;;;1.97;70.66;101186.28;7356643;19;20581;-57
2023/01/20 04:28:07;;;;;;;0.10;0.10;;;;;;;1.98;70.67;101188.03;7354952;19;20017;-57
2023/01/20 04:30:32;;;;;;;0.00;0.00;;;;;;;1.96;70.93;101188.84;7361053;19;20066;-58
2023/01/20 04:32:58;;;;;;;0.00;0.00;;;;;;;1.93;70.90;101189.66;7361377;19;20029;-58
2023/01/20 04:35:23;;;;;;;0.00;0.00;;;;;;;1.92;71.13;101187.03;7359844;19;20033;-57
2023/01/20 04:37:48;;;;;;;0.00;0.00;;;;;;;1.92;70.91;101179.31;7359768;19;20002;-57
2023/01/20 04:40:14;;;;;;;0.00;0.00;;;;;;;1.77;70.98;101167.88;7359023;19;20091;-57
2023/01/20 04:42:39;;;;;;;0.10;0.10;;;;;;;1.82;71.00;101175.66;7359957;19;20021;-58
2023/01/20 04:45:05;;;;;;;0.00;0.00;;;;;;;1.85;71.03;101180.03;7356092;19;20025;-58
2023/01/20 04:47:32;;;;;;;0.05;0.05;;;;;;;1.85;71.02;101185.19;7361892;19;20821;-58
2023/01/20 04:49:57;;;;;;;0.00;0.00;;;;;;;1.83;70.94;101181.72;7361121;19;20018;-58
2023/01/20 04:52:23;;;;;;;0.10;0.10;;;;;;;1.81;70.82;101179.09;7359484;19;20052;-57
2023/01/20 04:54:48;;;;;;;0.10;0.10;;;;;;;1.78;70.99;101173.91;7359163;19;20015;-58
2023/01/20 04:57:14;;;;;;;0.00;0.00;;;;;;;1.76;71.06;101179.00;7359654;19;20015;-58
2023/01/20 04:59:40;;;;;;;0.00;0.00;;;;;;;1.76;70.83;101183.28;7355946;19;20021;-57
2023/01/20 05:02:06;;;;;;;0.10;0.10;;;;;;;1.75;71.09;101185.00;7358504;19;20018;-58
2023/01/20 05:04:31;;;;;;;0.00;0.00;;;;;;;1.73;71.06;101181.53;7360081;19;20087;-58
2023/01/20 05:06:57;;;;;;;0.00;0.00;;;;;;;1.70;71.26;101176.31;7356109;19;20128;-57
2023/01/20 05:09:22;;;;;;;0.00;0.00;;;;;;;1.72;70.81;101177.19;7359079;19;20020;-56
2023/01/20 05:11:47;;;;;;;0.10;0.10;;;;;;;1.66;71.25;101171.91;7359388;19;20498;-57
2023/01/20 05:14:13;;;;;;;0.10;0.10;;;;;;;1.68;71.02;101177.97;7358902;19;20018;-58
2023/01/20 05:16:38;;;;;;;0.10;0.10;;;;;;;1.61;70.56;101170.94;7352636;19;20094;-58
2023/01/20 05:19:04;;;;;;;0.10;0.10;;;;;;;1.66;70.90;101184.78;7359658;19;20003;-58
2023/01/20 05:21:29;;;;;;;0.10;0.10;;;;;;;1.64;70.73;101186.47;7358022;19;20006;-58
2023/01/20 05:23:56;;;;;;;0.00;0.00;;;;;;;1.65;70.77;101198.50;7358792;19;20009;-58
2023/01/20 05:26:22;;;;;;;0.00;0.00;;;;;;;1.64;70.98;101207.06;7357517;19;20018;-58
2023/01/20 05:28:48;;;;;;;0.03;0.03;;;;;;;1.64;70.99;101201.06;7359667;19;20018;-57
2023/01/20 05:31:14;;;;;;;0.10;0.10;;;;;;;1.62;71.27;101203.56;7356583;19;20007;-57
2023/01/20 05:33:39;;;;;;;0.00;0.00;;;;;;;1.55;70.91;101192.28;7356430;19;20014;-58
2023/01/20 05:36:05;;;;;;;0.00;0.00;;;;;;;1.51;71.07;101189.59;7358269;19;20015;-58
2023/01/20 05:38:31;;;;;;;0.10;0.10;;;;;;;1.61;71.15;101207.00;7359441;19;20025;-58
2023/01/20 05:41:05;;;;;;;0.10;0.10;;;;;;;1.62;70.84;101207.84;7356364;19;20007;-58
2023/01/20 05:43:31;;;;;;;0.08;0.08;;;;;;;1.60;71.01;101205.25;7356670;19;20006;-58
2023/01/20 05:45:57;;;;;;;0.08;0.08;;;;;;;1.59;70.95;101205.22;7357265;19;20015;-58
2023/01/20 05:48:23;;;;;;;0.10;0.10;;;;;;;1.59;71.34;101200.94;7358954;19;20014;-57
2023/01/20 05:50:48;;;;;;;0.10;0.10;;;;;;;1.59;71.31;101207.81;7358282;19;21614;-57
2023/01/20 05:53:14;;;;;;;0.05;0.05;;;;;;;1.56;71.32;101213.75;7358445;19;20021;-56
2023/01/20 05:55:39;;;;;;;0.00;0.00;;;;;;;1.57;71.28;101215.47;7353208;19;22351;-58
2023/01/20 05:58:06;;;;;;;0.10;0.10;;;;;;;1.51;71.26;101205.03;7358616;19;20007;-58
2023/01/20 06:00:31;;;;;;;0.10;0.10;;;;;;;1.47;70.93;101191.25;7357385;19;20625;-58
2023/01/20 06:02:57;;;;;;;0.00;0.00;;;;;;;1.55;71.15;101205.16;7357989;19;20101;-57
2023/01/20 06:05:23;;;;;;;0.00;0.00;;;;;;;1.54;71.09;101213.72;7357953;19;20049;-58
2023/01/20 06:07:48;;;;;;;0.10;0.10;;;;;;;1.53;71.42;101214.56;7357894;19;20806;-57
2023/01/20 06:10:15;;;;;;;0.10;0.10;;;;;;;1.53;71.35;101214.56;7357199;19;20627;-57
2023/01/20 06:12:41;;;;;;;0.10;0.10;;;;;;;1.52;71.20;101217.06;7357329;19;20014;-57
2023/01/20 06:15:07;;;;;;;0.05;0.05;;;;;;;1.49;71.48;101215.31;7349366;19;20011;-57
2023/01/20 06:17:33;;;;;;;0.00;0.00;;;;;;;1.50;71.23;101218.75;7357039;19;20689;-57
2023/01/20 06:19:59;;;;;;;0.00;0.00;;;;;;;1.49;71.10;101222.16;7356292;19;20015;-57
2023/01/20 06:22:25;;;;;;;0.00;0.00;;;;;;;1.47;71.44;101219.56;7357966;19;20018;-57
2023/01/20 06:24:51;;;;;;;0.00;0.00;;;;;;;1.47;71.11;101221.25;7357790;19;21640;-57
2023/01/20 06:27:16;;;;;;;0.00;0.00;;;;;;;1.46;71.38;101224.66;7358150;19;20102;-57
2023/01/20 06:29:42;;;;;;;0.10;0.10;;;;;;;1.44;70.97;101221.19;7357028;19;20015;-58
2023/01/20 06:32:07;;;;;;;0.10;0.10;;;;;;;1.43;70.95;101227.19;7353482;19;20022;-57
2023/01/20 06:34:32;;;;;;;0.10;0.10;;;;;;;1.37;71.27;101217.63;7362707;19;20002;-58
2023/01/20 06:36:58;;;;;;;0.00;0.00;;;;;;;1.41;71.32;101233.97;7360237;19;20014;-58
2023/01/20 06:39:23;;;;;;;0.10;0.10;;;;;;;1.40;71.40;101229.69;7364785;19;20694;-59
2023/01/20 06:41:49;;;;;;;0.00;0.00;;;;;;;1.39;71.03;101238.25;7363010;19;20779;-58
2023/01/20 06:44:15;;;;;;;0.00;0.00;;;;;;;1.38;71.34;101233.94;7361512;19;20023;-58
2023/01/20 06:46:40;;;;;;;0.10;0.10;;;;;;;1.36;71.37;101233.88;7364027;19;20006;-58
2023/01/20 06:49:06;;;;;;;0.00;0.00;;;;;;;1.35;71.52;101226.13;7360369;19;20037;-56
2023/01/20 06:51:32;;;;;;;0.00;0.00;;;;;;;1.33;71.03;101235.53;7363150;19;20395;-57
2023/01/20 06:53:58;;;;;;;0.00;0.00;;;;;;;1.32;71.23;101233.75;7360422;19;20010;-56
2023/01/20 06:56:23;;;;;;;0.00;0.00;;;;;;;1.30;71.29;101241.44;7364743;19;20034;-58
2023/01/20 06:58:49;;;;;;;0.10;0.10;;;;;;;1.28;71.43;101233.72;7347949;19;20009;-58
2023/01/20 07:01:20;;;;;;;0.00;0.00;;;;;;;1.27;71.31;101239.69;7364477;19;20725;-58
2023/01/20 07:03:45;;;;;;;0.10;0.10;;;;;;;1.15;71.59;101217.94;7361330;19;20995;-57
2023/01/20 07:06:16;;;;;;;0.10;0.10;;;;;;;1.24;71.29;101246.47;7364703;19;20011;-57
2023/01/20 07:08:43;;;;;;;0.10;0.10;;;;;;;1.21;71.13;101242.09;7360651;19;20017;-58
2023/01/20 07:11:08;;;;;;;0.05;0.05;;;;;;;1.19;71.54;101241.19;7359619;19;20026;-58
2023/01/20 07:13:34;;;;;;;0.00;0.00;;;;;;;1.18;71.42;101247.19;7363111;19;20021;-58
2023/01/20 07:15:59;;;;;;;0.10;0.10;;;;;;;1.15;71.45;101252.25;7362803;19;20146;-58
2023/01/20 07:18:24;;;;;;;0.00;0.00;;;;;;;1.13;71.30;101248.78;7360230;19;20006;-58
2023/01/20 07:20:56;;;;;;;0.00;0.00;;;;;;;0.94;71.23;101220.88;7360956;19;20030;-56
2023/01/20 07:23:23;;;;;;;0.00;0.00;;;;;;;1.09;71.39;101252.09;7363566;19;20723;-57
2023/01/20 07:26:02;;;;;;;0.00;0.00;;;;;;;1.07;71.15;101266.63;7362004;19;20030;-57
2023/01/20 07:28:29;;;;;;;0.00;0.00;;;;;;;1.04;71.05;101263.97;7360776;19;20834;-58
2023/01/20 07:30:55;;;;;;;0.00;0.00;;;;;;;1.00;71.17;101262.16;7361003;19;20049;-58
2023/01/20 07:33:20;;;;;;;0.10;0.10;;;;;;;0.98;71.12;101263.81;7359871;19;20014;-57
2023/01/20 07:35:51;;;;;;;0.10;0.10;;;;;;;0.98;71.07;101274.97;7361307;19;20109;-58
2023/01/20 07:38:17;;;;;;;0.00;0.00;;;;;;;0.81;71.08;101249.66;7357498;19;20039;-57
2023/01/20 07:40:42;;;;;;;0.00;0.00;;;;;;;0.95;71.44;101279.16;7362407;19;20015;-59
2023/01/20 07:43:08;;;;;;;0.10;0.10;;;;;;;0.91;71.35;101278.25;7358228;19;20017;-58
2023/01/20 07:45:33;;;;;;;0.10;0.10;;;;;;;0.87;71.51;101268.69;7359548;19;20017;-56
2023/01/20 07:48:00;;;;;;;0.00;0.00;;;;;;;0.88;71.07;101277.28;7360821;19;20022;-57
2023/01/20 07:50:26;;;;;;;0.00;0.00;;;;;;;0.85;71.23;101277.19;7361702;19;20002;-56
2023/01/20 07:52:52;;;;;;;0.00;0.00;;;;;;;0.83;71.49;101278.88;7338686;19;20013;-58
2023/01/20 07:55:18;;;;;;;0.00;0.00;;;;;;;0.82;71.48;101282.28;7359540;19;20375;-57
2023/01/20 07:57:43;;;;;;;0.00;0.00;;;;;;;0.78;70.99;101287.31;7361827;19;20098;-58
2023/01/20 08:00:09;;;;;;;0.00;0.00;;;;;;;0.75;71.25;101287.22;7360475;19;20007;-57
2023/01/20 08:02:39;;;;;;;0.00;0.00;;;;;;;0.74;71.24;101290.63;7358583;19;20006;-59
2023/01/20 08:05:05;;;;;;;0.00;0.00;;;;;;;0.62;71.38;101280.03;7360113;19;20077;-57
2023/01/20 08:07:31;;;;;;;0.05;0.05;;;;;;;0.55;71.19;101267.81;7361670;19;20018;-56
2023/01/20 08:09:56;;;;;;;0.03;0.03;;;;;;;0.68;71.14;101298.19;7361707;19;20018;-58
2023/01/20 08:12:22;;;;;;;0.10;0.10;;;;;;;0.60;71.14;101291.94;7355953;19;20090;-58
2023/01/20 08:14:48;;;;;;;0.05;0.05;;;;;;;0.63;71.16;101292.06;7363458;19;20422;-58
2023/01/20 08:17:13;;;;;;;0.00;0.00;;;;;;;0.62;71.38;101294.59;7362639;19;20014;-57
2023/01/20 08:19:39;;;;;;;0.00;0.00;;;;;;;0.59;71.44;101295.34;7362269;19;20015;-58
2023/01/20 08:22:04;;;;;;;0.03;0.03;;;;;;;0.59;71.25;101300.50;7364430;19;20027;-57
2023/01/20 08:24:30;;;;;;;0.08;0.08;;;;;;;0.56;71.10;101315.84;7360512;19;20902;-56
2023/01/20 08:26:55;;;;;;;0.00;0.00;;;;;;;0.54;71.03;101306.34;7365797;19;24736;-58
2023/01/20 08:29:20;;;;;;;0.00;0.00;;;;;;;0.52;71.17;101307.19;7362192;19;20035;-58
2023/01/20 08:31:46;;;;;;;0.10;0.10;;;;;;;0.48;71.19;101307.91;7363102;19;20011;-56
2023/01/20 08:34:11;;;;;;;0.00;0.00;;;;;;;0.48;71.41;101313.06;7361470;19;20010;-59
2023/01/20 08:36:39;;;;;;;0.03;0.03;;;;;;;0.46;71.09;101308.72;7365587;19;20581;-58
2023/01/20 08:39:09;;;;;;;0.10;0.10;;;;;;;0.47;71.27;101308.75;7360083;19;20083;-58
2023/01/20 08:41:37;;;;;;;0.10;0.10;;;;;;;0.46;71.17;101308.72;7344989;19;20443;-56
2023/01/20 08:44:06;;;;;;;0.03;0.03;;;;;;;0.44;71.03;101306.06;7357004;19;20565;-57
2023/01/20 08:46:31;;;;;;;0.10;0.10;;;;;;;0.44;71.23;101320.63;7354104;19;20034;-59
2023/01/20 08:48:57;;;;;;;0.00;0.00;;;;;;;0.44;71.01;101320.63;7358242;19;21065;-58
2023/01/20 08:51:26;;;;;;;0.00;0.00;;;;;;;0.44;71.26;101330.91;7353600;19;20002;-58
2023/01/20 08:53:52;;;;;;;0.10;0.10;;;;;;;0.42;71.02;101323.16;7362077;19;20020;-58
2023/01/20 08:56:19;;;;;;;0.08;0.08;;;;;;;0.43;70.97;101324.03;7357759;19;26346;-58
2023/01/20 08:58:46;;;;;;;0.00;0.00;;;;;;;0.44;71.16;101318.06;7332913;19;20014;-58
2023/01/20 09:01:20;;;;;;;0.03;0.03;;;;;;;0.43;70.90;101324.03;7348796;19;20053;-58
2023/01/20 09:03:46;;;;;;;0.10;0.10;;;;;;;0.43;71.31;101329.16;7346744;19;20006;-58
2023/01/20 09:06:11;;;;;;;0.10;0.10;;;;;;;0.33;70.90;101324.59;7349198;19;20839;-58
2023/01/20 09:08:38;;;;;;;0.00;0.00;;;;;;;0.43;71.35;101344.59;7345920;19;20007;-57
2023/01/20 09:11:09;;;;;;;0.10;0.10;;;;;;;0.44;71.11;101348.88;7347511;19;20428;-58
2023/01/20 09:13:34;;;;;;;0.05;0.05;;;;;;;0.45;71.12;101353.19;7350490;19;20006;-58
2023/01/20 09:16:00;;;;;;;0.00;0.00;;;;;;;0.48;70.91;101359.31;7343530;19;20098;-56
2023/01/20 09:18:26;;;;;;;0.00;0.00;;;;;;;0.49;71.31;101352.47;7349724;19;20010;-58
2023/01/20 09:20:51;;;;;;;0.00;0.00;;;;;;;0.50;71.00;101351.63;7352328;19;20793;-58
2023/01/20 09:23:16;;;;;;;0.00;0.00;;;;;;;0.52;71.27;101352.56;7354337;19;20018;-58
2023/01/20 09:25:42;;;;;;;0.10;0.10;;;;;;;0.52;71.39;101350.00;7350762;19;20047;-58
2023/01/20 09:28:07;;;;;;;0.00;0.00;;;;;;;0.60;71.19;101343.34;7350585;19;20014;-57
2023/01/20 09:30:33;;;;;;;0.10;0.10;;;;;;;0.70;71.19;101345.34;7348830;19;20034;-58
2023/01/20 09:32:58;;;;;;;0.10;0.10;;;;;;;0.68;71.17;101316.19;7350662;19;20089;-58
2023/01/20 09:35:25;;;;;;;0.00;0.00;;;;;;;0.90;71.21;101333.03;7349220;19;20022;-58
2023/01/20 09:43:54;;;;;;;0.00;0.00;;;;;;;1.77;70.75;101348.13;7247153;19;2004604;-58
2023/01/20 09:46:22;;;;;;;0.00;0.00;;;;;;;2.09;70.24;101347.97;7245544;19;2004486;-56
2023/01/20 09:55:06;;;;;;;0.10;0.10;;;;;;;2.96;69.24;101359.22;7347871;19;20017;-58
2023/01/20 09:57:39;;;;;;;0.00;0.00;;;;;;;3.16;69.35;101357.88;7346925;19;20055;-58
2023/01/20 10:00:09;;;;;;;0.00;0.00;;;;;;;3.38;68.70;101367.72;7348695;19;20011;-58
2023/01/20 10:02:35;;;;;;;0.10;0.10;;;;;;;3.58;68.63;101372.34;7347451;19;20021;-58
2023/01/20 10:05:11;;;;;;;0.10;0.10;;;;;;;3.84;68.53;101381.38;7348481;19;20847;-57
2023/01/20 10:07:54;;;;;;;0.00;0.00;;;;;;;4.00;68.46;101366.09;7345909;19;20011;-58
2023/01/20 10:10:23;;;;;;;0.10;0.10;;;;;;;4.34;67.73;101385.56;7353862;19;20002;-58
2023/01/20 10:13:18;;;;;;;0.00;0.00;;;;;;;4.65;67.96;101384.25;7354107;19;20006;-58
2023/01/20 10:15:52;;;;;;;0.00;0.00;;;;;;;4.89;67.60;101379.38;7251192;19;2004549;-58
2023/01/20 10:18:42;;;;;;;0.00;0.00;;;;;;;5.17;67.58;101379.66;7355760;19;20014;-58
2023/01/20 10:21:33;;;;;;;0.00;0.00;;;;;;;5.42;67.13;101381.66;7356186;19;20813;-57
2023/01/20 10:24:21;;;;;;;0.08;0.08;;;;;;;5.74;66.96;101383.66;7253849;19;2004305;-58
2023/01/20 10:26:56;;;;;;;0.00;0.00;;;;;;;5.91;65.97;101376.88;7354572;19;20002;-58
2023/01/20 10:29:40;;;;;;;0.10;0.10;;;;;;;6.25;66.07;101377.13;7355891;19;20018;-59
2023/01/20 10:32:17;;;;;;;0.00;0.00;;;;;;;6.49;65.87;101382.44;7356644;19;20011;-58
2023/01/20 10:34:48;;;;;;;0.00;0.00;;;;;;;6.79;64.98;101392.94;7358259;19;20031;-57
2023/01/20 10:37:14;;;;;;;0.00;0.00;;;;;;;7.01;64.33;101408.59;7353052;19;20870;-58
2023/01/20 10:39:47;;;;;;;0.00;0.00;;;;;;;7.29;64.35;101395.69;7355584;19;20011;-57
2023/01/20 10:42:15;;;;;;;0.00;0.00;;;;;;;7.61;63.52;101397.47;7358930;19;20347;-57
2023/01/20 10:44:42;;;;;;;0.00;0.00;;;;;;;7.87;62.93;101413.94;7355897;19;20587;-58
2023/01/20 10:47:25;;;;;;;0.00;0.00;;;;;;;8.13;62.59;101411.31;7351325;19;20014;-58
2023/01/20 10:50:13;;;;;;;0.00;0.00;;;;;;;8.54;63.21;101419.06;7355032;19;20010;-58
2023/01/20 10:52:53;;;;;;;0.00;0.00;;;;;;;8.85;62.80;101421.56;7351714;19;20013;-58
2023/01/20 10:55:25;;;;;;;0.00;0.00;;;;;;;9.12;62.49;101420.56;7353090;19;20018;-58
2023/01/20 10:57:59;;;;;;;0.08;0.08;;;;;;;9.37;61.59;101418.69;7352260;19;20007;-58
2023/01/20 11:00:28;;;;;;;0.00;0.00;;;;;;;9.57;61.10;101419.41;7357663;19;20042;-57
2023/01/20 11:02:57;;;;;;;0.08;0.08;;;;;;;9.84;60.86;101414.88;7351579;19;20026;-58
2023/01/20 11:05:37;;;;;;;0.00;0.00;;;;;;;10.22;61.56;101421.50;7356609;19;20018;-58
2023/01/20 11:08:09;;;;;;;0.10;0.10;;;;;;;10.45;60.83;101414.34;7355712;19;20033;-58
2023/01/20 11:10:34;;;;;;;0.00;0.00;;;;;;;10.62;59.95;101417.63;7356468;19;20010;-58
2023/01/20 11:13:01;;;;;;;0.10;0.10;;;;;;;10.84;59.58;101415.59;7357859;19;20049;-58
2023/01/20 11:15:30;;;;;;;0.10;0.10;;;;;;;11.06;59.44;101424.06;7357008;19;20014;-58
2023/01/20 11:18:13;;;;;;;0.10;0.10;;;;;;;11.32;60.67;101420.22;7354528;19;20842;-58
2023/01/20 11:20:44;;;;;;;0.03;0.03;;;;;;;11.38;59.30;101420.97;7354376;19;20015;-58
2023/01/20 11:23:31;;;;;;;0.00;0.00;;;;;;;11.44;60.62;101405.19;7357032;19;20514;-56
2023/01/20 11:25:58;;;;;;;0.08;0.08;;;;;;;11.65;59.27;101434.53;7354637;19;20046;-58
2023/01/20 11:28:25;;;;;;;0.10;0.10;;;;;;;11.82;58.84;101436.94;7354694;19;20086;-57
2023/01/20 11:30:54;;;;;;;0.00;0.00;;;;;;;12.06;58.79;101431.28;7356795;19;20017;-59
2023/01/20 11:33:23;;;;;;;0.10;0.10;;;;;;;12.28;58.59;101430.91;7354266;19;20007;-59
2023/01/20 11:36:00;;;;;;;0.00;0.00;;;;;;;12.56;59.46;101426.00;7355340;19;20010;-58
2023/01/20 11:38:30;;;;;;;;;;;;;;;12.87;61.49;101423.63;7356163;19;20046;-59
2023/01/20 11:40:56;;;;;;;0.00;0.00;;;;;;;12.85;58.08;101409.72;7351188;19;20549;-58
2023/01/20 11:43:29;;;;;;;0.00;0.00;;;;;;;13.20;58.19;101422.94;7354364;19;20111;-59
2023/01/20 11:46:11;;;;;;;0.10;0.10;;;;;;;13.43;59.04;101417.22;7353120;19;20021;-59
2023/01/20 11:48:37;;;;;;;0.10;0.10;;;;;;;13.46;57.05;101414.50;7356606;19;20014;-58
2023/01/20 11:51:03;;;;;;;0.10;0.10;;;;;;;13.69;56.63;101421.84;7352469;19;20018;-57
2023/01/20 11:53:32;;;;;;;0.00;0.00;;;;;;;13.90;57.16;101425.72;7352898;19;20006;-58